Time;durP1;ratioP1;P1;durP2;ratioP2;P2;SDS_P1;SDS_P2;PMS_P1;PMS_P2;Temp;Humidity;BMP_temperature;BMP_pressure;BME280_temperature;BME280_humidity;BME280_pressure;Samples;Min_cycle;Max_cycle;Signal;HPM_P1;HPM_P2
2023/08/30 00:01:57;;;;;;;2.53;0.88;;;;;;;14.37;100.00;100149.16;5057135;28;20029;-52
2023/08/30 00:04:22;;;;;;;3.22;1.85;;;;;;;14.30;100.00;100150.28;5053190;28;20037;-48
2023/08/30 00:06:48;;;;;;;1.25;0.52;;;;;;;14.18;100.00;100150.22;5056915;28;20033;-48
2023/08/30 00:09:13;;;;;;;0.43;0.43;;;;;;;14.07;100.00;100148.28;5059474;28;20039;-52
2023/08/30 00:11:39;;;;;;;1.90;1.23;;;;;;;14.00;100.00;100153.69;5060568;28;20436;-50
2023/08/30 00:14:06;;;;;;;0.75;0.60;;;;;;;13.93;100.00;100153.75;5057237;28;20082;-48
2023/08/30 00:16:33;;;;;;;0.98;0.45;;;;;;;13.86;100.00;100138.88;5053503;28;20103;-51
2023/08/30 00:18:59;;;;;;;1.05;0.57;;;;;;;13.70;100.00;100141.06;5058572;28;20043;-51
2023/08/30 00:21:25;;;;;;;1.77;0.52;;;;;;;13.61;100.00;100137.06;5060238;28;20032;-47
2023/08/30 00:23:50;;;;;;;1.88;1.00;;;;;;;13.53;100.00;100132.03;5051141;28;20037;-49
2023/08/30 00:26:16;;;;;;;0.80;0.20;;;;;;;13.49;100.00;100128.16;5050746;28;20328;-50
2023/08/30 00:28:41;;;;;;;0.47;0.20;;;;;;;13.38;100.00;100123.56;5050848;28;20098;-49
2023/08/30 00:31:06;;;;;;;1.90;1.15;;;;;;;13.32;100.00;100117.25;5053900;28;20474;-52
2023/08/30 00:33:32;;;;;;;1.13;1.00;;;;;;;13.20;100.00;100108.31;5054997;28;20045;-49
2023/08/30 00:35:58;;;;;;;2.80;0.43;;;;;;;13.14;100.00;100117.97;5053962;28;20100;-48
2023/08/30 00:38:26;;;;;;;1.80;0.55;;;;;;;13.02;100.00;100122.38;5069329;28;20040;-49
2023/08/30 00:40:52;;;;;;;0.88;0.68;;;;;;;12.99;100.00;100114.81;5053269;28;20032;-50
2023/08/30 00:43:18;;;;;;;4.30;0.63;;;;;;;12.95;100.00;100118.94;5052605;28;20087;-51
2023/08/30 00:45:43;;;;;;;1.65;0.40;;;;;;;12.84;100.00;100121.25;5059002;28;20056;-47
2023/08/30 00:48:09;;;;;;;1.50;0.70;;;;;;;12.82;100.00;100117.16;5063518;28;20028;-49
2023/08/30 00:50:35;;;;;;;0.73;0.70;;;;;;;12.76;100.00;100118.03;5052182;28;20047;-48
2023/08/30 00:53:05;;;;;;;2.63;0.57;;;;;;;12.50;100.00;100127.78;5054630;28;20034;-49
2023/08/30 00:55:31;;;;;;;1.35;0.63;;;;;;;12.58;100.00;100130.19;5051474;28;20032;-51
2023/08/30 00:57:56;;;;;;;1.05;0.20;;;;;;;12.63;100.00;100125.06;5051643;28;20485;-48
2023/08/30 01:00:22;;;;;;;2.00;0.47;;;;;;;12.63;100.00;100116.25;5054056;28;20114;-47
2023/08/30 01:02:47;;;;;;;5.57;1.65;;;;;;;12.65;100.00;100112.38;5050526;28;20035;-50
2023/08/30 01:05:13;;;;;;;0.90;0.50;;;;;;;12.53;100.00;100111.41;5051266;28;20033;-52
2023/08/30 01:07:38;;;;;;;3.50;0.73;;;;;;;12.41;100.00;100102.44;5058203;28;20063;-48
2023/08/30 01:10:04;;;;;;;0.73;0.45;;;;;;;12.23;100.00;100113.78;5047059;28;20126;-48
2023/08/30 01:12:45;;;;;;;0.88;0.73;;;;;;;12.10;100.00;100113.84;5052923;28;20047;-51
2023/08/30 01:15:15;;;;;;;0.80;0.55;;;;;;;12.02;100.00;100111.41;5053353;28;20377;-46
2023/08/30 01:17:43;;;;;;;1.23;0.77;;;;;;;12.04;100.00;100107.53;5052994;28;20036;-48
2023/08/30 01:20:18;;;;;;;0.93;0.80;;;;;;;11.92;100.00;100114.50;5047870;28;20284;-47
2023/08/30 01:22:53;;;;;;;0.60;0.43;;;;;;;11.78;100.00;100119.00;5064479;28;20036;-51
2023/08/30 01:25:18;;;;;;;1.75;0.85;;;;;;;11.73;100.00;100116.16;5047875;28;20033;-50
2023/08/30 01:27:47;;;;;;;1.15;0.70;;;;;;;11.69;100.00;100120.22;5050328;28;20037;-51
2023/08/30 01:30:15;;;;;;;1.65;1.55;;;;;;;11.66;100.00;100128.63;5055354;28;20124;-50
2023/08/30 01:32:41;;;;;;;1.13;0.50;;;;;;;11.72;100.00;100123.31;5058639;28;20054;-46
2023/08/30 01:35:08;;;;;;;6.10;0.82;;;;;;;11.83;100.00;100129.81;5050160;28;20203;-49
2023/08/30 01:37:34;;;;;;;1.00;0.57;;;;;;;11.80;100.00;100138.22;5052169;28;20130;-51
2023/08/30 01:40:01;;;;;;;5.15;0.52;;;;;;;11.74;100.00;100139.84;5057030;28;20028;-53
2023/08/30 01:42:27;;;;;;;5.07;0.77;;;;;;;11.67;100.00;100128.44;5053715;28;20511;-51
2023/08/30 01:44:57;;;;;;;1.45;0.88;;;;;;;11.75;100.00;100138.81;5050079;28;20060;-49
2023/08/30 01:47:25;;;;;;;1.42;0.65;;;;;;;11.80;100.00;100132.91;5051812;28;20036;-50
2023/08/30 01:49:52;;;;;;;1.02;0.85;;;;;;;11.73;100.00;100132.09;5057948;28;20025;-48
2023/08/30 01:52:18;;;;;;;1.95;0.47;;;;;;;11.73;100.00;100134.75;5050600;28;20032;-48
2023/08/30 01:54:45;;;;;;;1.92;0.57;;;;;;;11.82;100.00;100135.34;5055483;28;20028;-50
2023/08/30 01:57:11;;;;;;;3.22;0.50;;;;;;;11.87;100.00;100131.06;5051764;28;20040;-47
2023/08/30 01:59:36;;;;;;;1.00;0.25;;;;;;;11.92;100.00;100127.78;5048885;28;20492;-55
2023/08/30 02:02:03;;;;;;;1.98;0.30;;;;;;;11.94;100.00;100129.22;5058522;28;20221;-53
2023/08/30 02:04:29;;;;;;;0.95;0.30;;;;;;;11.96;100.00;100129.81;5053232;28;20036;-49
2023/08/30 02:07:01;;;;;;;4.80;0.60;;;;;;;11.88;100.00;100130.06;5056871;28;20020;-50
2023/08/30 02:09:36;;;;;;;4.32;0.45;;;;;;;11.87;100.00;100135.56;5051072;28;20129;-51
2023/08/30 02:12:05;;;;;;;1.67;0.30;;;;;;;11.91;100.00;100132.28;5048723;28;20485;-50
2023/08/30 02:14:32;;;;;;;1.42;0.50;;;;;;;11.94;100.00;100128.41;5051558;28;20029;-50
2023/08/30 02:16:57;;;;;;;3.38;0.85;;;;;;;11.85;100.00;100126.94;5051371;28;20551;-51
2023/08/30 02:19:23;;;;;;;1.42;0.47;;;;;;;11.81;100.00;100128.41;5051037;28;20036;-52
2023/08/30 02:21:48;;;;;;;1.65;1.02;;;;;;;11.76;100.00;100135.13;5051538;28;20021;-50
2023/08/30 02:24:14;;;;;;;0.75;0.20;;;;;;;11.66;100.00;100133.94;5055114;28;20037;-48
2023/08/30 02:26:40;;;;;;;0.75;0.40;;;;;;;11.57;100.00;100134.16;5053654;28;20036;-49
2023/08/30 02:29:05;;;;;;;1.35;0.52;;;;;;;11.58;100.00;100134.97;5044026;28;20047;-49
2023/08/30 02:31:30;;;;;;;2.08;0.63;;;;;;;11.53;100.00;100130.25;5050089;28;20497;-49
2023/08/30 02:33:56;;;;;;;0.50;0.50;;;;;;;11.48;100.00;100127.41;5057202;28;20039;-49
2023/08/30 02:36:21;;;;;;;1.10;0.82;;;;;;;11.37;100.00;100129.88;5049612;28;20028;-49
2023/08/30 02:38:46;;;;;;;0.90;0.80;;;;;;;11.30;100.00;100129.88;5043248;28;20031;-48
2023/08/30 02:41:12;;;;;;;2.92;0.30;;;;;;;11.26;100.00;100128.66;5049607;28;20107;-47
2023/08/30 02:43:37;;;;;;;4.32;0.68;;;;;;;11.17;100.00;100125.38;5052379;28;20473;-47
2023/08/30 02:46:04;;;;;;;1.98;1.05;;;;;;;11.11;100.00;100126.19;5050284;28;20051;-49
2023/08/30 02:48:29;;;;;;;1.23;0.60;;;;;;;11.07;100.00;100127.59;5050412;28;20056;-48
2023/08/30 02:50:55;;;;;;;1.00;0.70;;;;;;;11.04;100.00;100134.13;5051515;28;20529;-48
2023/08/30 02:53:20;;;;;;;0.57;0.50;;;;;;;10.96;100.00;100126.38;5046674;28;20098;-49
2023/08/30 02:55:47;;;;;;;2.20;0.82;;;;;;;10.86;100.00;100134.72;5053933;28;20028;-49
2023/08/30 02:58:12;;;;;;;1.42;0.50;;;;;;;10.78;100.00;100128.78;5057725;28;20040;-50
2023/08/30 03:00:38;;;;;;;1.85;0.95;;;;;;;10.72;100.00;100132.25;5050110;28;20389;-50
2023/08/30 03:03:03;;;;;;;1.98;1.02;;;;;;;10.61;100.00;100130.97;5051039;28;20128;-49
2023/08/30 03:05:29;;;;;;;0.20;0.20;;;;;;;10.54;100.00;100128.31;5060685;28;20123;-49
2023/08/30 03:07:54;;;;;;;0.77;0.20;;;;;;;10.53;100.00;100134.63;5046193;28;20033;-48
2023/08/30 03:10:20;;;;;;;1.20;0.77;;;;;;;10.47;100.00;100128.28;5060220;28;20507;-49
2023/08/30 03:12:45;;;;;;;1.85;0.55;;;;;;;10.38;100.00;100132.16;5060934;28;20100;-50
2023/08/30 03:15:11;;;;;;;0.38;0.38;;;;;;;10.31;100.00;100133.13;5052607;28;20125;-50
2023/08/30 03:17:36;;;;;;;4.30;0.68;;;;;;;10.24;100.00;100135.72;5057100;28;20023;-49
2023/08/30 03:20:03;;;;;;;1.52;0.40;;;;;;;10.18;100.00;100133.84;5066140;28;20028;-52
2023/08/30 03:22:29;;;;;;;2.58;0.93;;;;;;;10.13;100.00;100131.78;5056629;28;20469;-51
2023/08/30 03:24:54;;;;;;;2.30;0.32;;;;;;;10.00;100.00;100137.84;5051866;28;20043;-47
2023/08/30 03:27:20;;;;;;;0.30;0.22;;;;;;;9.94;100.00;100130.69;5050693;28;20611;-51
2023/08/30 03:29:45;;;;;;;0.43;0.13;;;;;;;9.86;100.00;100130.00;5054853;28;20025;-50
2023/08/30 03:32:18;;;;;;;5.97;0.60;;;;;;;9.76;100.00;100125.09;5021990;28;1117725;-50
2023/08/30 03:34:47;;;;;;;2.78;0.30;;;;;;;9.75;100.00;100120.78;5057596;28;20723;-47
2023/08/30 03:37:14;;;;;;;0.57;0.22;;;;;;;9.72;100.00;100119.34;5051073;28;20494;-52
2023/08/30 03:39:39;;;;;;;1.75;0.50;;;;;;;9.72;100.00;100126.47;5053548;28;20035;-47
2023/08/30 03:42:05;;;;;;;0.40;0.40;;;;;;;9.74;100.00;100125.25;5056473;28;21338;-47
2023/08/30 03:44:30;;;;;;;0.60;0.20;;;;;;;9.72;100.00;100121.97;5058982;28;20039;-50
2023/08/30 03:46:56;;;;;;;0.10;0.10;;;;;;;9.62;100.00;100126.81;5059154;28;20343;-51
2023/08/30 03:49:22;;;;;;;0.82;0.47;;;;;;;9.59;100.00;100120.06;5064768;28;20051;-54
2023/08/30 03:51:47;;;;;;;3.15;1.30;;;;;;;9.58;100.00;100120.28;5053505;28;20051;-48
2023/08/30 03:54:16;;;;;;;0.80;0.80;;;;;;;9.58;100.00;100125.56;5053211;28;20075;-47
2023/08/30 03:56:42;;;;;;;1.10;0.43;;;;;;;9.53;100.00;100126.16;5058367;28;20029;-47
2023/08/30 03:59:07;;;;;;;1.58;0.55;;;;;;;9.46;100.00;100121.81;5068416;28;20067;-50
2023/08/30 04:01:33;;;;;;;2.50;0.40;;;;;;;9.42;100.00;100121.34;5056330;28;20390;-50
2023/08/30 04:03:58;;;;;;;0.52;0.50;;;;;;;9.22;100.00;100123.88;5052807;28;20033;-50
2023/08/30 04:06:23;;;;;;;0.40;0.10;;;;;;;9.26;100.00;100134.88;5051455;28;20087;-52
2023/08/30 04:08:49;;;;;;;0.65;0.60;;;;;;;9.23;100.00;100136.06;5057206;28;20494;-51
2023/08/30 04:11:14;;;;;;;0.40;0.30;;;;;;;9.14;100.00;100139.88;5047820;28;20382;-50
2023/08/30 04:13:39;;;;;;;1.00;0.20;;;;;;;9.06;100.00;100142.63;5062722;28;20477;-47
2023/08/30 04:16:05;;;;;;;0.73;0.47;;;;;;;9.04;100.00;100139.38;5058101;28;20385;-47
2023/08/30 04:18:30;;;;;;;0.57;0.38;;;;;;;9.07;100.00;100139.00;5064582;28;20062;-50
2023/08/30 04:20:59;;;;;;;12.75;0.85;;;;;;;9.13;100.00;100139.03;5059363;28;20082;-49
2023/08/30 04:23:24;;;;;;;0.20;0.13;;;;;;;9.10;100.00;100135.97;5057891;28;20028;-52
2023/08/30 04:25:49;;;;;;;0.30;0.20;;;;;;;9.12;100.00;100137.41;5053215;28;20034;-50
2023/08/30 04:28:15;;;;;;;0.80;0.30;;;;;;;9.11;100.00;100134.94;5051078;28;20714;-47
2023/08/30 04:30:40;;;;;;;1.30;0.17;;;;;;;9.14;100.00;100137.22;5054699;28;20101;-48
2023/08/30 04:33:06;;;;;;;0.40;0.40;;;;;;;8.99;100.00;100139.13;5058019;28;20166;-50
2023/08/30 04:35:31;;;;;;;1.27;0.40;;;;;;;9.02;100.00;100142.19;5049176;28;20036;-48
2023/08/30 04:37:58;;;;;;;0.68;0.20;;;;;;;9.05;100.00;100146.28;5057813;28;20477;-47
2023/08/30 04:40:24;;;;;;;2.60;0.43;;;;;;;9.12;100.00;100147.19;5051339;28;20085;-50
2023/08/30 04:42:49;;;;;;;1.83;0.30;;;;;;;9.26;100.00;100143.63;5052716;28;20475;-50
2023/08/30 04:45:15;;;;;;;1.35;0.50;;;;;;;9.43;100.00;100143.38;5048114;28;20033;-51
2023/08/30 04:47:42;;;;;;;1.17;0.57;;;;;;;9.55;100.00;100139.16;5054310;28;20017;-47
2023/08/30 04:50:08;;;;;;;1.02;0.50;;;;;;;9.68;100.00;100141.94;5050047;28;20032;-48
2023/08/30 04:52:34;;;;;;;1.23;0.30;;;;;;;9.85;100.00;100142.44;5053882;28;20041;-47
2023/08/30 04:54:59;;;;;;;0.88;0.25;;;;;;;9.95;100.00;100142.09;5056924;28;20478;-49
2023/08/30 04:57:25;;;;;;;1.08;0.28;;;;;;;10.07;100.00;100139.69;5057339;28;20466;-51
2023/08/30 04:59:50;;;;;;;0.43;0.28;;;;;;;10.13;100.00;100145.03;5055633;28;20029;-51
2023/08/30 05:02:15;;;;;;;2.70;0.60;;;;;;;10.15;100.00;100140.38;5051893;28;20090;-51
2023/08/30 05:04:41;;;;;;;1.35;0.32;;;;;;;10.16;100.00;100149.94;5054731;28;20020;-50
2023/08/30 05:07:06;;;;;;;1.15;0.63;;;;;;;10.17;100.00;100140.16;5060036;28;20551;-47
2023/08/30 05:09:34;;;;;;;5.53;0.65;;;;;;;10.30;100.00;100142.91;5055521;28;20539;-48
2023/08/30 05:11:59;;;;;;;1.45;0.63;;;;;;;10.44;100.00;100146.44;5052468;28;20249;-47
2023/08/30 05:14:25;;;;;;;0.50;0.47;;;;;;;10.59;100.00;100141.81;5053480;28;20104;-46
2023/08/30 05:16:50;;;;;;;2.50;1.35;;;;;;;10.72;100.00;100145.50;5052515;28;20133;-50
2023/08/30 05:19:16;;;;;;;1.58;0.22;;;;;;;10.79;100.00;100143.66;5053201;28;20493;-49
2023/08/30 05:21:42;;;;;;;0.75;0.40;;;;;;;10.78;100.00;100148.16;5048542;28;20043;-50
2023/08/30 05:24:08;;;;;;;1.30;0.20;;;;;;;10.78;100.00;100147.34;5058928;28;20028;-48
2023/08/30 05:26:33;;;;;;;1.02;0.50;;;;;;;10.35;100.00;100150.25;5050602;28;20592;-47
2023/08/30 05:28:58;;;;;;;2.28;0.98;;;;;;;10.28;100.00;100160.03;5052612;28;20025;-52
2023/08/30 05:31:24;;;;;;;1.75;0.30;;;;;;;10.11;100.00;100152.34;5055876;28;20044;-52
2023/08/30 05:33:49;;;;;;;2.95;0.38;;;;;;;10.02;100.00;100157.00;5051894;28;20031;-49
2023/08/30 05:36:14;;;;;;;1.80;0.55;;;;;;;9.98;100.00;100158.41;5052762;28;20052;-51
2023/08/30 05:38:40;;;;;;;1.65;0.38;;;;;;;9.79;100.00;100159.91;5049628;28;20392;-52
2023/08/30 05:41:06;;;;;;;1.33;0.35;;;;;;;9.58;100.00;100155.50;5057583;28;20032;-49
2023/08/30 05:43:31;;;;;;;0.20;0.20;;;;;;;9.52;100.00;100152.78;5061285;28;20542;-51
2023/08/30 05:46:01;;;;;;;1.10;0.63;;;;;;;9.73;100.00;100159.88;5050837;28;20303;-50
2023/08/30 05:48:27;;;;;;;2.35;1.20;;;;;;;9.65;100.00;100157.38;5058475;28;20492;-51
2023/08/30 05:50:52;;;;;;;2.47;0.52;;;;;;;9.62;100.00;100163.88;5048005;28;20037;-49
2023/08/30 05:53:17;;;;;;;0.40;0.32;;;;;;;9.63;100.00;100170.81;5056939;28;20089;-48
2023/08/30 05:55:43;;;;;;;1.13;0.77;;;;;;;9.67;100.00;100168.59;5050710;28;20405;-53
2023/08/30 05:58:08;;;;;;;3.60;0.85;;;;;;;9.66;100.00;100164.31;5060984;28;20162;-47
2023/08/30 06:00:33;;;;;;;3.35;1.65;;;;;;;9.64;100.00;100167.16;5051658;28;20031;-45
2023/08/30 06:02:59;;;;;;;7.28;1.65;;;;;;;9.98;100.00;100170.81;5054160;28;20477;-48
2023/08/30 06:05:26;;;;;;;3.20;0.22;;;;;;;10.16;100.00;100173.78;5064113;28;20024;-52
2023/08/30 06:07:51;;;;;;;0.80;0.30;;;;;;;10.28;100.00;100176.75;5057939;28;20038;-50
2023/08/30 06:10:17;;;;;;;5.97;0.30;;;;;;;10.11;100.00;100176.19;5060935;28;20024;-51
2023/08/30 06:12:42;;;;;;;0.82;0.40;;;;;;;10.14;100.00;100167.84;5048694;28;20036;-49
2023/08/30 06:15:08;;;;;;;1.58;0.15;;;;;;;10.19;100.00;100170.75;5059598;28;20505;-49
2023/08/30 06:17:33;;;;;;;3.65;0.40;;;;;;;10.27;100.00;100169.75;5051591;28;20036;-52
2023/08/30 06:19:59;;;;;;;0.20;0.05;;;;;;;10.36;100.00;100173.94;5056521;28;20596;-45
2023/08/30 06:22:24;;;;;;;2.20;0.93;;;;;;;10.42;100.00;100174.97;5058049;28;20055;-51
2023/08/30 06:24:50;;;;;;;11.80;0.80;;;;;;;10.39;100.00;100165.56;5060128;28;20078;-48
2023/08/30 06:27:15;;;;;;;0.80;0.22;;;;;;;10.52;100.00;100162.16;5055473;28;20043;-47
2023/08/30 06:29:40;;;;;;;4.97;1.00;;;;;;;10.61;100.00;100166.28;5049413;28;20036;-51
2023/08/30 06:32:06;;;;;;;5.82;0.65;;;;;;;10.68;100.00;100167.09;5056545;28;20065;-51
2023/08/30 06:34:31;;;;;;;5.55;2.35;;;;;;;10.81;100.00;100162.88;5054378;28;20036;-50
2023/08/30 06:36:57;;;;;;;3.13;1.35;;;;;;;11.08;100.00;100174.34;5056363;28;20522;-50
2023/08/30 06:39:22;;;;;;;5.93;2.28;;;;;;;11.37;100.00;100161.72;5049817;28;20065;-50
2023/08/30 06:41:48;;;;;;;8.52;1.60;;;;;;;11.64;100.00;100167.84;5046071;28;20587;-53
2023/08/30 06:44:13;;;;;;;3.92;1.20;;;;;;;11.82;100.00;100167.22;5053383;28;20150;-50
2023/08/30 06:46:39;;;;;;;3.85;1.35;;;;;;;11.86;100.00;100161.31;5052532;28;20545;-53
2023/08/30 06:49:05;;;;;;;4.25;0.40;;;;;;;11.99;100.00;100168.44;5052487;28;20029;-51
2023/08/30 06:51:30;;;;;;;3.33;0.50;;;;;;;12.07;100.00;100167.41;5049369;28;20078;-49
2023/08/30 06:54:00;;;;;;;4.25;1.63;;;;;;;12.12;100.00;100176.38;5051042;28;20444;-52
2023/08/30 06:56:26;;;;;;;5.05;0.52;;;;;;;12.07;100.00;100173.53;5061795;28;20028;-50
2023/08/30 06:58:51;;;;;;;3.33;0.20;;;;;;;12.15;100.00;100181.28;5056875;28;20029;-53
2023/08/30 07:01:16;;;;;;;7.88;1.92;;;;;;;12.19;100.00;100182.50;5055165;28;20117;-51
2023/08/30 07:03:42;;;;;;;1.98;0.40;;;;;;;12.25;100.00;100180.03;5050636;28;20064;-49
2023/08/30 07:06:07;;;;;;;1.80;0.22;;;;;;;12.30;100.00;100173.06;5075205;28;20492;-52
2023/08/30 07:08:32;;;;;;;15.63;1.40;;;;;;;12.45;100.00;100175.47;5056299;28;20060;-49
2023/08/30 07:10:58;;;;;;;4.68;0.65;;;;;;;12.52;100.00;100170.94;5046578;28;20095;-51
2023/08/30 07:13:23;;;;;;;4.75;1.17;;;;;;;12.72;100.00;100170.81;5047480;28;20484;-54
2023/08/30 07:15:49;;;;;;;3.72;1.13;;;;;;;12.97;100.00;100162.13;5052606;28;20100;-51
2023/08/30 07:18:14;;;;;;;2.65;0.63;;;;;;;13.12;100.00;100169.81;5060206;28;20509;-49
2023/08/30 07:20:39;;;;;;;3.83;1.80;;;;;;;13.24;100.00;100162.72;5055792;28;20036;-52
2023/08/30 07:23:05;;;;;;;5.78;0.15;;;;;;;13.40;100.00;100167.56;5052908;28;20035;-50
2023/08/30 07:25:32;;;;;;;2.10;0.65;;;;;;;13.62;100.00;100170.66;5051285;28;20108;-49
2023/08/30 07:27:57;;;;;;;4.07;0.73;;;;;;;13.80;100.00;100177.06;5046699;28;20474;-53
2023/08/30 07:30:23;;;;;;;3.22;0.93;;;;;;;13.98;100.00;100169.09;5043442;28;20025;-50
2023/08/30 07:32:48;;;;;;;3.05;0.90;;;;;;;14.09;100.00;100159.53;5048010;28;20028;-49
2023/08/30 07:35:13;;;;;;;11.13;1.50;;;;;;;14.16;100.00;100153.09;5056076;28;20033;-53
2023/08/30 07:37:39;;;;;;;4.72;0.50;;;;;;;14.10;100.00;100146.00;5059019;28;20041;-48
2023/08/30 07:40:05;;;;;;;6.50;0.90;;;;;;;14.28;100.00;100142.50;5048205;28;20028;-50
2023/08/30 07:42:30;;;;;;;4.63;1.13;;;;;;;14.53;100.00;100144.28;5045323;28;20032;-50
2023/08/30 07:44:55;;;;;;;4.63;0.90;;;;;;;14.65;100.00;100141.69;5045671;28;20111;-50
2023/08/30 07:47:21;;;;;;;7.50;1.45;;;;;;;14.67;100.00;100127.06;5049117;28;20029;-51
2023/08/30 07:49:46;;;;;;;7.32;1.38;;;;;;;14.84;100.00;100135.22;5047590;28;20037;-49
2023/08/30 07:52:12;;;;;;;4.25;0.73;;;;;;;14.83;100.00;100133.63;5053806;28;20036;-50
2023/08/30 07:54:39;;;;;;;6.00;1.30;;;;;;;14.88;100.00;100125.75;5048520;28;20413;-52
2023/08/30 07:57:05;;;;;;;4.22;0.30;;;;;;;14.94;100.00;100126.69;5060157;28;20025;-54
2023/08/30 07:59:33;;;;;;;4.00;0.68;;;;;;;15.09;100.00;100126.25;5056144;28;20044;-51
2023/08/30 08:01:59;;;;;;;1.98;0.90;;;;;;;15.27;100.00;100126.97;5055558;28;20071;-47
2023/08/30 08:04:24;;;;;;;5.95;0.57;;;;;;;15.35;100.00;100123.16;5054158;28;20410;-53
2023/08/30 08:06:49;;;;;;;1.25;0.40;;;;;;;15.54;100.00;100121.22;5052709;28;20083;-53
2023/08/30 08:09:15;;;;;;;2.95;0.50;;;;;;;15.55;100.00;100125.50;5056935;28;20056;-52
2023/08/30 08:11:43;;;;;;;4.70;1.55;;;;;;;15.49;100.00;100132.59;5048735;28;20060;-49
2023/08/30 08:14:11;;;;;;;2.95;0.40;;;;;;;15.30;100.00;100119.56;5055143;28;20067;-48
2023/08/30 08:16:37;;;;;;;3.25;0.47;;;;;;;15.30;100.00;100128.38;5057334;28;20146;-53
2023/08/30 08:19:02;;;;;;;3.03;0.30;;;;;;;15.11;100.00;100132.19;5051532;28;20041;-53
2023/08/30 08:21:28;;;;;;;5.15;0.73;;;;;;;15.08;100.00;100129.97;5052217;28;20035;-51
2023/08/30 08:23:53;;;;;;;3.10;0.60;;;;;;;15.16;100.00;100116.28;5047610;28;20642;-53
2023/08/30 08:26:19;;;;;;;5.22;1.30;;;;;;;15.18;100.00;100115.03;5057874;28;20071;-50
2023/08/30 08:28:44;;;;;;;2.75;0.57;;;;;;;15.34;100.00;100129.56;5056762;28;20104;-52
2023/08/30 08:31:10;;;;;;;3.70;0.98;;;;;;;15.51;100.00;100123.50;5058720;28;20417;-51
2023/08/30 08:33:35;;;;;;;3.92;0.47;;;;;;;15.59;100.00;100118.66;5054148;28;20401;-52
2023/08/30 08:36:01;;;;;;;3.17;0.95;;;;;;;15.87;100.00;100120.63;5055149;28;20526;-52
2023/08/30 08:38:26;;;;;;;2.05;0.25;;;;;;;16.29;100.00;100127.66;5061813;28;20480;-51
2023/08/30 08:41:03;;;;;;;3.95;0.88;;;;;;;16.38;100.00;100126.22;5047117;28;20039;-52
2023/08/30 08:43:29;;;;;;;4.78;0.32;;;;;;;16.45;100.00;100129.56;5057410;28;20059;-50
2023/08/30 08:45:59;;;;;;;3.92;0.25;;;;;;;16.45;100.00;100129.56;5058093;28;20496;-53
2023/08/30 08:48:28;;;;;;;2.75;0.63;;;;;;;16.55;100.00;100126.28;5047701;28;20029;-52
2023/08/30 08:50:54;;;;;;;0.98;0.08;;;;;;;16.29;100.00;100114.28;5053551;28;20072;-52
2023/08/30 08:53:19;;;;;;;1.58;0.17;;;;;;;16.28;100.00;100116.13;5055664;28;20040;-50
2023/08/30 08:55:46;;;;;;;1.52;0.80;;;;;;;16.60;100.00;100121.03;5060660;28;20029;-52
2023/08/30 08:58:14;;;;;;;1.48;0.22;;;;;;;16.85;100.00;100122.56;5057795;28;20044;-50
2023/08/30 09:00:42;;;;;;;3.13;0.10;;;;;;;16.92;100.00;100117.88;5050565;28;20024;-52
2023/08/30 09:03:08;;;;;;;2.45;0.47;;;;;;;17.12;100.00;100118.22;5055039;28;20052;-53
2023/08/30 09:05:37;;;;;;;3.85;0.17;;;;;;;17.23;100.00;100111.94;5056967;28;20457;-51
2023/08/30 09:08:04;;;;;;;2.33;0.28;;;;;;;17.18;100.00;100111.88;5051710;28;20507;-53
2023/08/30 09:10:29;;;;;;;2.90;0.20;;;;;;;17.21;100.00;100115.94;5047745;28;20025;-53
2023/08/30 09:12:55;;;;;;;3.50;0.10;;;;;;;17.27;100.00;100108.78;5067419;28;20070;-52
2023/08/30 09:15:21;;;;;;;2.50;0.05;;;;;;;17.24;100.00;100115.44;5057229;28;20032;-53
2023/08/30 09:17:46;;;;;;;3.28;0.30;;;;;;;17.24;100.00;100110.06;5053729;28;20102;-53
2023/08/30 09:20:12;;;;;;;6.30;0.57;;;;;;;17.29;100.00;100101.31;5059511;28;20024;-53
2023/08/30 09:22:42;;;;;;;7.55;0.65;;;;;;;17.17;100.00;100117.50;5046364;28;20380;-57
2023/08/30 09:25:10;;;;;;;1.77;1.08;;;;;;;17.08;100.00;100111.69;5048127;28;20030;-54
2023/08/30 09:27:35;;;;;;;1.90;0.28;;;;;;;17.31;100.00;100109.91;5052589;28;20419;-53
2023/08/30 09:30:03;;;;;;;2.17;0.10;;;;;;;17.75;100.00;100102.78;5053232;28;20036;-55
2023/08/30 09:32:29;;;;;;;1.85;0.60;;;;;;;17.90;100.00;100110.25;5050127;28;20047;-52
2023/08/30 09:34:55;;;;;;;1.27;0.20;;;;;;;18.34;100.00;100096.84;5053770;28;20044;-52
2023/08/30 09:37:21;;;;;;;2.80;0.40;;;;;;;18.71;100.00;100099.63;5057963;28;20028;-53
2023/08/30 09:39:50;;;;;;;2.10;0.05;;;;;;;18.98;100.00;100084.59;5047371;28;20497;-51
2023/08/30 09:42:19;;;;;;;4.38;0.52;;;;;;;19.36;100.00;100084.38;5047958;28;20533;-56
2023/08/30 09:44:44;;;;;;;1.83;0.10;;;;;;;18.89;100.00;100076.19;5039073;28;20430;-53
2023/08/30 09:47:09;;;;;;;7.32;0.35;;;;;;;18.55;100.00;100084.44;5052481;28;20046;-52
2023/08/30 09:49:47;;;;;;;0.93;0.32;;;;;;;18.39;100.00;100090.72;5052993;28;20041;-52
2023/08/30 09:52:15;;;;;;;1.20;0.17;;;;;;;18.34;100.00;100099.53;5045920;28;20029;-52
2023/08/30 09:54:43;;;;;;;3.20;0.20;;;;;;;18.37;100.00;100108.94;5050560;28;20553;-50
2023/08/30 09:57:12;;;;;;;2.05;0.57;;;;;;;18.24;100.00;100102.09;5054093;28;20063;-53
2023/08/30 09:59:39;;;;;;;1.52;0.20;;;;;;;17.94;100.00;100102.53;5051368;28;20538;-51
2023/08/30 10:02:05;;;;;;;1.17;0.10;;;;;;;17.95;100.00;100101.47;5051929;28;20035;-52
2023/08/30 10:04:32;;;;;;;2.92;0.50;;;;;;;17.72;100.00;100095.25;5040589;28;20037;-52
2023/08/30 10:06:58;;;;;;;1.17;0.20;;;;;;;17.78;100.00;100096.94;5050607;28;20032;-49
2023/08/30 10:09:24;;;;;;;1.25;0.50;;;;;;;18.03;100.00;100091.13;5050978;28;20061;-49
2023/08/30 10:11:50;;;;;;;1.70;0.43;;;;;;;18.25;100.00;100093.81;5050340;28;20135;-47
2023/08/30 10:14:16;;;;;;;4.35;0.28;;;;;;;18.43;100.00;100089.97;5052490;28;20469;-47
2023/08/30 10:16:49;;;;;;;3.58;0.47;;;;;;;18.51;100.00;100096.78;5051343;28;21492;-54
2023/08/30 10:19:27;;;;;;;0.45;0.10;;;;;;;18.59;100.00;100090.13;5047847;28;21238;-48
2023/08/30 10:22:08;;;;;;;0.52;0.00;;;;;;;18.68;100.00;100085.91;5047054;28;20039;-52
2023/08/30 10:24:41;;;;;;;2.40;0.52;;;;;;;18.56;100.00;100088.78;5050153;28;20307;-49
2023/08/30 10:27:08;;;;;;;1.88;0.08;;;;;;;18.70;100.00;100094.53;5048420;28;20420;-48
2023/08/30 10:29:36;;;;;;;0.93;0.10;;;;;;;18.94;100.00;100078.91;5047499;28;20041;-47
2023/08/30 10:32:05;;;;;;;5.28;0.25;;;;;;;18.82;100.00;100079.09;5049911;28;20044;-55
2023/08/30 10:34:37;;;;;;;0.95;0.10;;;;;;;18.82;100.00;100086.31;5049692;28;20035;-52
2023/08/30 10:37:06;;;;;;;2.53;0.57;;;;;;;18.91;100.00;100084.81;5044079;28;20033;-54
2023/08/30 10:39:42;;;;;;;0.88;0.10;;;;;;;18.85;100.00;100085.84;5048668;28;20535;-55
2023/08/30 10:42:15;;;;;;;0.95;0.00;;;;;;;18.82;100.00;100084.47;5045610;28;20042;-54
2023/08/30 10:44:51;;;;;;;1.08;0.30;;;;;;;18.65;100.00;100091.78;5049021;28;20115;-52
2023/08/30 10:47:30;;;;;;;1.85;0.00;;;;;;;18.72;100.00;100087.84;5045788;28;20029;-53
2023/08/30 10:49:59;;;;;;;0.80;0.20;;;;;;;18.38;100.00;100092.59;5050710;28;20039;-57
2023/08/30 10:52:27;;;;;;;1.85;0.00;;;;;;;18.07;100.00;100099.47;5046952;28;20067;-53
2023/08/30 10:54:52;;;;;;;1.95;0.00;;;;;;;18.14;100.00;100101.97;5052220;28;20595;-52
2023/08/30 10:57:24;;;;;;;0.65;0.05;;;;;;;17.92;100.00;100092.06;5041695;28;20033;-50
2023/08/30 11:00:05;;;;;;;2.28;0.75;;;;;;;17.66;100.00;100097.06;5048157;28;20021;-47
2023/08/30 11:02:32;;;;;;;3.67;0.05;;;;;;;17.81;100.00;100098.34;5043898;28;20037;-51
2023/08/30 11:04:58;;;;;;;0.52;0.00;;;;;;;17.95;100.00;100094.25;5051129;28;20036;-56
2023/08/30 11:07:27;;;;;;;1.20;0.10;;;;;;;18.15;100.00;100095.53;5045578;28;20349;-55
2023/08/30 11:09:53;;;;;;;0.52;0.00;;;;;;;18.44;100.00;100102.31;5048076;28;20025;-52
2023/08/30 11:12:22;;;;;;;3.50;0.90;;;;;;;19.26;100.00;100080.78;5042374;28;20864;-52
2023/08/30 11:14:47;;;;;;;1.85;1.05;;;;;;;19.90;100.00;100090.59;5049012;28;20053;-53
2023/08/30 11:17:13;;;;;;;0.80;0.00;;;;;;;20.06;100.00;100081.53;5048141;28;20101;-53